sensor_id;sensor_type;location;lat;lon;timestamp;P1;durP1;ratioP1;P2;durP2;ratioP2
15466;SDS011;7834;49.452;11.056;2023-03-20T00:00:01;7.80;;;7.00;;
15466;SDS011;7834;49.452;11.056;2023-03-20T00:02:28;9.07;;;6.65;;
15466;SDS011;7834;49.452;11.056;2023-03-20T00:04:54;12.43;;;9.23;;
15466;SDS011;7834;49.452;11.056;2023-03-20T00:07:20;8.00;;;7.20;;
15466;SDS011;7834;49.452;11.056;2023-03-20T00:09:46;7.55;;;6.60;;
15466;SDS011;7834;49.452;11.056;2023-03-20T00:12:17;8.75;;;7.18;;
15466;SDS011;7834;49.452;11.056;2023-03-20T00:14:46;6.65;;;6.00;;
15466;SDS011;7834;49.452;11.056;2023-03-20T00:17:13;6.20;;;5.60;;
15466;SDS011;7834;49.452;11.056;2023-03-20T00:19:44;7.60;;;6.50;;
15466;SDS011;7834;49.452;11.056;2023-03-20T00:22:10;6.95;;;5.30;;
15466;SDS011;7834;49.452;11.056;2023-03-20T00:24:36;6.90;;;5.18;;
15466;SDS011;7834;49.452;11.056;2023-03-20T00:27:02;6.25;;;5.18;;
15466;SDS011;7834;49.452;11.056;2023-03-20T00:29:30;6.38;;;5.63;;
15466;SDS011;7834;49.452;11.056;2023-03-20T00:31:57;6.68;;;5.95;;
15466;SDS011;7834;49.452;11.056;2023-03-20T00:34:24;8.77;;;6.65;;
15466;SDS011;7834;49.452;11.056;2023-03-20T00:36:51;6.50;;;5.80;;
15466;SDS011;7834;49.452;11.056;2023-03-20T00:39:17;6.68;;;5.50;;
15466;SDS011;7834;49.452;11.056;2023-03-20T00:41:53;7.72;;;5.80;;
15466;SDS011;7834;49.452;11.056;2023-03-20T00:46:48;6.35;;;5.22;;
15466;SDS011;7834;49.452;11.056;2023-03-20T00:49:15;4.95;;;4.50;;
15466;SDS011;7834;49.452;11.056;2023-03-20T00:51:41;5.30;;;4.80;;
15466;SDS011;7834;49.452;11.056;2023-03-20T00:54:13;5.90;;;4.70;;
15466;SDS011;7834;49.452;11.056;2023-03-20T00:56:49;5.22;;;4.10;;
15466;SDS011;7834;49.452;11.056;2023-03-20T00:59:17;5.43;;;4.50;;
15466;SDS011;7834;49.452;11.056;2023-03-20T01:01:45;5.82;;;4.68;;
15466;SDS011;7834;49.452;11.056;2023-03-20T01:04:16;5.20;;;4.45;;
15466;SDS011;7834;49.452;11.056;2023-03-20T01:06:43;5.05;;;4.63;;
15466;SDS011;7834;49.452;11.056;2023-03-20T01:09:09;5.63;;;4.53;;
15466;SDS011;7834;49.452;11.056;2023-03-20T01:11:35;5.03;;;4.40;;
15466;SDS011;7834;49.452;11.056;2023-03-20T01:14:02;4.80;;;4.30;;
15466;SDS011;7834;49.452;11.056;2023-03-20T01:16:28;5.27;;;4.40;;
15466;SDS011;7834;49.452;11.056;2023-03-20T01:18:54;4.93;;;4.40;;
15466;SDS011;7834;49.452;11.056;2023-03-20T01:21:20;5.55;;;4.40;;
15466;SDS011;7834;49.452;11.056;2023-03-20T01:23:47;5.22;;;4.60;;
15466;SDS011;7834;49.452;11.056;2023-03-20T01:26:25;5.00;;;4.50;;
15466;SDS011;7834;49.452;11.056;2023-03-20T01:28:52;5.43;;;4.87;;
15466;SDS011;7834;49.452;11.056;2023-03-20T01:31:18;5.28;;;4.78;;
15466;SDS011;7834;49.452;11.056;2023-03-20T01:33:44;5.10;;;4.60;;
15466;SDS011;7834;49.452;11.056;2023-03-20T01:36:11;5.50;;;4.53;;
15466;SDS011;7834;49.452;11.056;2023-03-20T01:38:38;5.60;;;5.10;;
15466;SDS011;7834;49.452;11.056;2023-03-20T01:41:05;5.63;;;5.00;;
15466;SDS011;7834;49.452;11.056;2023-03-20T01:43:32;5.63;;;4.80;;
15466;SDS011;7834;49.452;11.056;2023-03-20T01:46:00;5.82;;;5.10;;
15466;SDS011;7834;49.452;11.056;2023-03-20T01:51:12;5.80;;;5.17;;
15466;SDS011;7834;49.452;11.056;2023-03-20T01:53:38;5.00;;;4.50;;
15466;SDS011;7834;49.452;11.056;2023-03-20T01:56:04;5.40;;;4.90;;
15466;SDS011;7834;49.452;11.056;2023-03-20T01:58:31;5.40;;;4.90;;
15466;SDS011;7834;49.452;11.056;2023-03-20T02:01:00;5.57;;;5.00;;
15466;SDS011;7834;49.452;11.056;2023-03-20T02:03:26;5.38;;;4.88;;
15466;SDS011;7834;49.452;11.056;2023-03-20T02:05:52;6.00;;;5.20;;
15466;SDS011;7834;49.452;11.056;2023-03-20T02:10:48;5.30;;;4.80;;
15466;SDS011;7834;49.452;11.056;2023-03-20T02:13:15;5.43;;;4.93;;
15466;SDS011;7834;49.452;11.056;2023-03-20T02:18:40;5.53;;;5.03;;
15466;SDS011;7834;49.452;11.056;2023-03-20T02:31:41;6.13;;;5.53;;
15466;SDS011;7834;49.452;11.056;2023-03-20T02:42:02;6.53;;;6.00;;
15466;SDS011;7834;49.452;11.056;2023-03-20T02:44:36;6.53;;;5.93;;
15466;SDS011;7834;49.452;11.056;2023-03-20T02:47:17;7.90;;;6.43;;
15466;SDS011;7834;49.452;11.056;2023-03-20T02:57:15;7.13;;;6.50;;
15466;SDS011;7834;49.452;11.056;2023-03-20T02:59:51;7.43;;;6.63;;
15466;SDS011;7834;49.452;11.056;2023-03-20T03:02:23;6.97;;;6.28;;
15466;SDS011;7834;49.452;11.056;2023-03-20T03:04:54;8.88;;;6.55;;
15466;SDS011;7834;49.452;11.056;2023-03-20T03:07:23;7.68;;;6.90;;
15466;SDS011;7834;49.452;11.056;2023-03-20T03:09:59;8.30;;;6.93;;
15466;SDS011;7834;49.452;11.056;2023-03-20T03:12:29;7.43;;;6.72;;
15466;SDS011;7834;49.452;11.056;2023-03-20T03:14:58;7.70;;;7.00;;
15466;SDS011;7834;49.452;11.056;2023-03-20T03:17:25;8.27;;;7.47;;
15466;SDS011;7834;49.452;11.056;2023-03-20T03:19:54;8.00;;;7.20;;
15466;SDS011;7834;49.452;11.056;2023-03-20T03:22:21;8.73;;;7.93;;
15466;SDS011;7834;49.452;11.056;2023-03-20T03:24:49;8.38;;;7.57;;
15466;SDS011;7834;49.452;11.056;2023-03-20T03:29:46;9.43;;;8.43;;
15466;SDS011;7834;49.452;11.056;2023-03-20T03:32:21;10.05;;;8.88;;
15466;SDS011;7834;49.452;11.056;2023-03-20T03:34:48;10.00;;;9.00;;
15466;SDS011;7834;49.452;11.056;2023-03-20T03:37:23;10.35;;;9.27;;
15466;SDS011;7834;49.452;11.056;2023-03-20T03:40:02;10.85;;;9.85;;
15466;SDS011;7834;49.452;11.056;2023-03-20T03:42:33;10.82;;;9.82;;
15466;SDS011;7834;49.452;11.056;2023-03-20T03:50:07;11.00;;;9.90;;
15466;SDS011;7834;49.452;11.056;2023-03-20T03:52:35;10.93;;;9.93;;
15466;SDS011;7834;49.452;11.056;2023-03-20T03:55:03;10.75;;;9.85;;
15466;SDS011;7834;49.452;11.056;2023-03-20T03:57:41;11.85;;;10.65;;
15466;SDS011;7834;49.452;11.056;2023-03-20T04:00:09;12.07;;;10.88;;
15466;SDS011;7834;49.452;11.056;2023-03-20T04:02:36;12.32;;;11.15;;
15466;SDS011;7834;49.452;11.056;2023-03-20T04:05:02;11.68;;;10.48;;
15466;SDS011;7834;49.452;11.056;2023-03-20T04:07:30;11.90;;;10.70;;
15466;SDS011;7834;49.452;11.056;2023-03-20T04:09:56;12.63;;;11.32;;
15466;SDS011;7834;49.452;11.056;2023-03-20T04:12:29;11.75;;;10.65;;
15466;SDS011;7834;49.452;11.056;2023-03-20T04:14:57;12.13;;;11.02;;
15466;SDS011;7834;49.452;11.056;2023-03-20T04:17:23;13.37;;;12.13;;
15466;SDS011;7834;49.452;11.056;2023-03-20T04:19:49;12.70;;;11.50;;
15466;SDS011;7834;49.452;11.056;2023-03-20T04:22:15;13.77;;;12.38;;
15466;SDS011;7834;49.452;11.056;2023-03-20T04:24:41;14.40;;;13.05;;
15466;SDS011;7834;49.452;11.056;2023-03-20T04:27:07;15.60;;;14.10;;
15466;SDS011;7834;49.452;11.056;2023-03-20T04:29:33;15.32;;;13.85;;
15466;SDS011;7834;49.452;11.056;2023-03-20T04:32:00;15.95;;;14.35;;
15466;SDS011;7834;49.452;11.056;2023-03-20T04:34:26;16.77;;;15.07;;
15466;SDS011;7834;49.452;11.056;2023-03-20T04:36:53;16.30;;;14.80;;
15466;SDS011;7834;49.452;11.056;2023-03-20T04:39:19;17.20;;;15.50;;
15466;SDS011;7834;49.452;11.056;2023-03-20T04:41:45;18.13;;;16.35;;
15466;SDS011;7834;49.452;11.056;2023-03-20T04:44:11;17.90;;;16.10;;
15466;SDS011;7834;49.452;11.056;2023-03-20T04:46:37;18.60;;;16.83;;
15466;SDS011;7834;49.452;11.056;2023-03-20T04:49:04;18.15;;;16.45;;
15466;SDS011;7834;49.452;11.056;2023-03-20T04:51:30;19.35;;;17.55;;
15466;SDS011;7834;49.452;11.056;2023-03-20T04:53:56;19.52;;;17.52;;
15466;SDS011;7834;49.452;11.056;2023-03-20T04:56:22;19.65;;;17.75;;
15466;SDS011;7834;49.452;11.056;2023-03-20T04:58:48;19.05;;;17.25;;
15466;SDS011;7834;49.452;11.056;2023-03-20T05:01:15;19.40;;;17.50;;
15466;SDS011;7834;49.452;11.056;2023-03-20T05:03:41;19.20;;;17.40;;
15466;SDS011;7834;49.452;11.056;2023-03-20T05:06:07;19.67;;;17.77;;
15466;SDS011;7834;49.452;11.056;2023-03-20T05:08:33;18.77;;;17.00;;
15466;SDS011;7834;49.452;11.056;2023-03-20T05:10:59;18.48;;;16.77;;
15466;SDS011;7834;49.452;11.056;2023-03-20T05:13:25;17.88;;;16.17;;
15466;SDS011;7834;49.452;11.056;2023-03-20T05:15:51;17.73;;;16.02;;
15466;SDS011;7834;49.452;11.056;2023-03-20T05:18:17;18.20;;;16.50;;
15466;SDS011;7834;49.452;11.056;2023-03-20T05:20:43;17.37;;;15.77;;
15466;SDS011;7834;49.452;11.056;2023-03-20T05:23:09;18.70;;;16.70;;
15466;SDS011;7834;49.452;11.056;2023-03-20T05:25:35;17.33;;;15.73;;
15466;SDS011;7834;49.452;11.056;2023-03-20T05:28:01;17.75;;;16.02;;
15466;SDS011;7834;49.452;11.056;2023-03-20T05:30:27;17.35;;;15.75;;
15466;SDS011;7834;49.452;11.056;2023-03-20T05:32:53;18.58;;;16.70;;
15466;SDS011;7834;49.452;11.056;2023-03-20T05:35:20;18.05;;;16.45;;
15466;SDS011;7834;49.452;11.056;2023-03-20T05:37:46;18.48;;;16.77;;
15466;SDS011;7834;49.452;11.056;2023-03-20T05:40:13;18.42;;;16.73;;
15466;SDS011;7834;49.452;11.056;2023-03-20T05:42:40;18.83;;;17.02;;
15466;SDS011;7834;49.452;11.056;2023-03-20T05:45:06;17.90;;;16.20;;
15466;SDS011;7834;49.452;11.056;2023-03-20T05:47:33;18.77;;;16.88;;
15466;SDS011;7834;49.452;11.056;2023-03-20T05:49:59;17.98;;;16.27;;
15466;SDS011;7834;49.452;11.056;2023-03-20T05:52:25;17.70;;;16.10;;
15466;SDS011;7834;49.452;11.056;2023-03-20T05:54:51;17.13;;;15.52;;
15466;SDS011;7834;49.452;11.056;2023-03-20T05:57:17;17.52;;;15.93;;
15466;SDS011;7834;49.452;11.056;2023-03-20T05:59:43;17.20;;;15.68;;
15466;SDS011;7834;49.452;11.056;2023-03-20T06:02:09;16.88;;;15.27;;
15466;SDS011;7834;49.452;11.056;2023-03-20T06:04:36;16.80;;;15.30;;
15466;SDS011;7834;49.452;11.056;2023-03-20T06:07:02;16.17;;;14.68;;
15466;SDS011;7834;49.452;11.056;2023-03-20T06:09:28;16.00;;;14.50;;
15466;SDS011;7834;49.452;11.056;2023-03-20T06:11:55;16.75;;;15.15;;
15466;SDS011;7834;49.452;11.056;2023-03-20T06:14:21;16.77;;;15.18;;
15466;SDS011;7834;49.452;11.056;2023-03-20T06:16:47;16.92;;;15.32;;
15466;SDS011;7834;49.452;11.056;2023-03-20T06:19:13;15.93;;;14.52;;
15466;SDS011;7834;49.452;11.056;2023-03-20T06:21:39;17.10;;;15.40;;
15466;SDS011;7834;49.452;11.056;2023-03-20T06:24:05;16.58;;;15.00;;
15466;SDS011;7834;49.452;11.056;2023-03-20T06:26:32;16.05;;;14.55;;
15466;SDS011;7834;49.452;11.056;2023-03-20T06:28:58;15.68;;;14.25;;
15466;SDS011;7834;49.452;11.056;2023-03-20T06:31:24;16.40;;;14.90;;
15466;SDS011;7834;49.452;11.056;2023-03-20T06:33:50;16.10;;;14.60;;
15466;SDS011;7834;49.452;11.056;2023-03-20T06:36:16;15.35;;;13.95;;
15466;SDS011;7834;49.452;11.056;2023-03-20T06:38:43;15.30;;;13.90;;
15466;SDS011;7834;49.452;11.056;2023-03-20T06:41:09;15.73;;;14.30;;
15466;SDS011;7834;49.452;11.056;2023-03-20T06:43:35;15.70;;;14.20;;
15466;SDS011;7834;49.452;11.056;2023-03-20T06:46:01;15.20;;;13.70;;
15466;SDS011;7834;49.452;11.056;2023-03-20T06:48:27;14.85;;;13.43;;
15466;SDS011;7834;49.452;11.056;2023-03-20T06:50:53;14.98;;;13.68;;
15466;SDS011;7834;49.452;11.056;2023-03-20T06:53:20;15.55;;;13.98;;
15466;SDS011;7834;49.452;11.056;2023-03-20T06:55:47;14.83;;;13.53;;
15466;SDS011;7834;49.452;11.056;2023-03-20T06:58:13;13.38;;;12.25;;
15466;SDS011;7834;49.452;11.056;2023-03-20T07:00:39;14.02;;;12.73;;
15466;SDS011;7834;49.452;11.056;2023-03-20T07:03:06;13.43;;;12.23;;
15466;SDS011;7834;49.452;11.056;2023-03-20T07:05:32;13.27;;;12.18;;
15466;SDS011;7834;49.452;11.056;2023-03-20T07:07:58;13.07;;;11.97;;
15466;SDS011;7834;49.452;11.056;2023-03-20T07:10:25;13.43;;;12.13;;
15466;SDS011;7834;49.452;11.056;2023-03-20T07:12:51;12.82;;;11.73;;
15466;SDS011;7834;49.452;11.056;2023-03-20T07:15:17;12.48;;;11.38;;
15466;SDS011;7834;49.452;11.056;2023-03-20T07:17:44;11.63;;;10.52;;
15466;SDS011;7834;49.452;11.056;2023-03-20T07:20:10;11.70;;;10.60;;
15466;SDS011;7834;49.452;11.056;2023-03-20T07:22:36;10.80;;;9.88;;
15466;SDS011;7834;49.452;11.056;2023-03-20T07:25:03;11.10;;;10.10;;
15466;SDS011;7834;49.452;11.056;2023-03-20T07:27:29;10.80;;;9.80;;
15466;SDS011;7834;49.452;11.056;2023-03-20T07:29:56;10.23;;;9.27;;
15466;SDS011;7834;49.452;11.056;2023-03-20T07:32:22;9.73;;;8.82;;
15466;SDS011;7834;49.452;11.056;2023-03-20T07:34:48;9.68;;;8.82;;
15466;SDS011;7834;49.452;11.056;2023-03-20T07:37:14;8.82;;;8.02;;
15466;SDS011;7834;49.452;11.056;2023-03-20T07:39:41;8.98;;;8.13;;
15466;SDS011;7834;49.452;11.056;2023-03-20T07:42:07;8.70;;;7.90;;
15466;SDS011;7834;49.452;11.056;2023-03-20T07:44:33;9.35;;;7.80;;
15466;SDS011;7834;49.452;11.056;2023-03-20T07:46:59;9.88;;;8.88;;
15466;SDS011;7834;49.452;11.056;2023-03-20T07:49:25;8.60;;;7.80;;
15466;SDS011;7834;49.452;11.056;2023-03-20T07:51:51;8.43;;;7.63;;
15466;SDS011;7834;49.452;11.056;2023-03-20T07:54:18;8.20;;;7.40;;
15466;SDS011;7834;49.452;11.056;2023-03-20T07:56:45;7.35;;;6.72;;
15466;SDS011;7834;49.452;11.056;2023-03-20T07:59:11;8.45;;;7.20;;
15466;SDS011;7834;49.452;11.056;2023-03-20T08:01:38;8.15;;;7.10;;
15466;SDS011;7834;49.452;11.056;2023-03-20T08:04:04;7.68;;;6.80;;
15466;SDS011;7834;49.452;11.056;2023-03-20T08:06:30;7.65;;;6.90;;
15466;SDS011;7834;49.452;11.056;2023-03-20T08:08:56;7.13;;;6.43;;
15466;SDS011;7834;49.452;11.056;2023-03-20T08:11:22;6.85;;;6.15;;
15466;SDS011;7834;49.452;11.056;2023-03-20T08:13:48;6.60;;;5.97;;
15466;SDS011;7834;49.452;11.056;2023-03-20T08:16:14;7.00;;;6.30;;
15466;SDS011;7834;49.452;11.056;2023-03-20T08:18:40;6.45;;;5.95;;
15466;SDS011;7834;49.452;11.056;2023-03-20T08:21:07;6.47;;;5.88;;
15466;SDS011;7834;49.452;11.056;2023-03-20T08:23:33;6.65;;;5.95;;
15466;SDS011;7834;49.452;11.056;2023-03-20T08:25:59;6.25;;;5.65;;
15466;SDS011;7834;49.452;11.056;2023-03-20T08:28:25;6.07;;;5.50;;
15466;SDS011;7834;49.452;11.056;2023-03-20T08:30:51;6.05;;;5.55;;
15466;SDS011;7834;49.452;11.056;2023-03-20T08:33:17;6.68;;;6.00;;
15466;SDS011;7834;49.452;11.056;2023-03-20T08:35:53;6.00;;;5.40;;
15466;SDS011;7834;49.452;11.056;2023-03-20T08:38:19;6.13;;;5.60;;
15466;SDS011;7834;49.452;11.056;2023-03-20T08:40:45;6.10;;;5.40;;
15466;SDS011;7834;49.452;11.056;2023-03-20T08:43:12;5.90;;;5.40;;
15466;SDS011;7834;49.452;11.056;2023-03-20T08:45:38;5.80;;;5.30;;
15466;SDS011;7834;49.452;11.056;2023-03-20T08:48:04;5.30;;;4.80;;
15466;SDS011;7834;49.452;11.056;2023-03-20T08:50:30;5.88;;;5.20;;
15466;SDS011;7834;49.452;11.056;2023-03-20T08:52:56;6.70;;;4.60;;
15466;SDS011;7834;49.452;11.056;2023-03-20T08:55:22;5.10;;;4.70;;
15466;SDS011;7834;49.452;11.056;2023-03-20T08:57:49;5.30;;;4.80;;
15466;SDS011;7834;49.452;11.056;2023-03-20T09:00:15;12.50;;;8.18;;
15466;SDS011;7834;49.452;11.056;2023-03-20T09:02:41;9.73;;;7.10;;
15466;SDS011;7834;49.452;11.056;2023-03-20T09:05:08;5.00;;;4.60;;
15466;SDS011;7834;49.452;11.056;2023-03-20T09:07:35;5.40;;;4.50;;
15466;SDS011;7834;49.452;11.056;2023-03-20T09:10:01;5.00;;;4.57;;
15466;SDS011;7834;49.452;11.056;2023-03-20T09:12:28;5.13;;;4.63;;
15466;SDS011;7834;49.452;11.056;2023-03-20T09:14:56;5.35;;;4.85;;
15466;SDS011;7834;49.452;11.056;2023-03-20T09:17:22;5.50;;;5.00;;
15466;SDS011;7834;49.452;11.056;2023-03-20T09:19:48;6.05;;;4.82;;
15466;SDS011;7834;49.452;11.056;2023-03-20T09:22:14;5.28;;;4.78;;
15466;SDS011;7834;49.452;11.056;2023-03-20T09:24:44;5.72;;;4.78;;
15466;SDS011;7834;49.452;11.056;2023-03-20T09:27:10;5.80;;;5.20;;
15466;SDS011;7834;49.452;11.056;2023-03-20T09:29:40;5.22;;;4.72;;
15466;SDS011;7834;49.452;11.056;2023-03-20T09:32:08;5.22;;;4.72;;
15466;SDS011;7834;49.452;11.056;2023-03-20T09:34:34;5.18;;;4.78;;
15466;SDS011;7834;49.452;11.056;2023-03-20T09:37:00;5.88;;;4.97;;
15466;SDS011;7834;49.452;11.056;2023-03-20T09:39:27;6.47;;;5.18;;
15466;SDS011;7834;49.452;11.056;2023-03-20T09:41:54;6.20;;;5.00;;
15466;SDS011;7834;49.452;11.056;2023-03-20T09:52:34;5.78;;;4.57;;
15466;SDS011;7834;49.452;11.056;2023-03-20T09:55:15;5.88;;;4.82;;
15466;SDS011;7834;49.452;11.056;2023-03-20T09:57:44;5.60;;;4.43;;
15466;SDS011;7834;49.452;11.056;2023-03-20T10:02:51;5.38;;;4.63;;
15466;SDS011;7834;49.452;11.056;2023-03-20T10:05:28;6.57;;;4.53;;
15466;SDS011;7834;49.452;11.056;2023-03-20T10:07:57;5.18;;;4.60;;
15466;SDS011;7834;49.452;11.056;2023-03-20T10:10:47;5.07;;;4.30;;
15466;SDS011;7834;49.452;11.056;2023-03-20T10:15:59;6.00;;;4.20;;
15466;SDS011;7834;49.452;11.056;2023-03-20T10:18:27;4.38;;;3.97;;
15466;SDS011;7834;49.452;11.056;2023-03-20T10:20:57;4.50;;;4.10;;
15466;SDS011;7834;49.452;11.056;2023-03-20T10:26:02;5.15;;;4.32;;
15466;SDS011;7834;49.452;11.056;2023-03-20T10:41:21;4.43;;;4.03;;
15466;SDS011;7834;49.452;11.056;2023-03-20T10:43:50;4.53;;;4.07;;
15466;SDS011;7834;49.452;11.056;2023-03-20T10:46:21;5.22;;;4.05;;
15466;SDS011;7834;49.452;11.056;2023-03-20T10:49:06;4.80;;;4.32;;
15466;SDS011;7834;49.452;11.056;2023-03-20T10:51:46;5.20;;;4.47;;
15466;SDS011;7834;49.452;11.056;2023-03-20T10:57:01;5.88;;;4.20;;
15466;SDS011;7834;49.452;11.056;2023-03-20T11:01:53;4.43;;;4.00;;
15466;SDS011;7834;49.452;11.056;2023-03-20T11:04:19;4.47;;;4.07;;
15466;SDS011;7834;49.452;11.056;2023-03-20T11:09:30;4.20;;;3.70;;
15466;SDS011;7834;49.452;11.056;2023-03-20T11:11:57;4.45;;;4.05;;
15466;SDS011;7834;49.452;11.056;2023-03-20T11:14:25;4.95;;;3.70;;
15466;SDS011;7834;49.452;11.056;2023-03-20T11:16:52;4.35;;;3.95;;
15466;SDS011;7834;49.452;11.056;2023-03-20T11:19:22;4.25;;;3.60;;
15466;SDS011;7834;49.452;11.056;2023-03-20T11:26:49;4.30;;;3.90;;
15466;SDS011;7834;49.452;11.056;2023-03-20T11:29:22;4.88;;;3.78;;
15466;SDS011;7834;49.452;11.056;2023-03-20T11:31:50;4.15;;;3.75;;
15466;SDS011;7834;49.452;11.056;2023-03-20T11:36:56;4.90;;;4.40;;
15466;SDS011;7834;49.452;11.056;2023-03-20T11:39:23;4.80;;;3.70;;
15466;SDS011;7834;49.452;11.056;2023-03-20T11:41:52;4.30;;;3.90;;
15466;SDS011;7834;49.452;11.056;2023-03-20T11:44:22;4.97;;;4.20;;
15466;SDS011;7834;49.452;11.056;2023-03-20T11:46:55;4.70;;;4.23;;
15466;SDS011;7834;49.452;11.056;2023-03-20T11:49:22;4.65;;;3.95;;
15466;SDS011;7834;49.452;11.056;2023-03-20T11:51:49;4.70;;;4.30;;
15466;SDS011;7834;49.452;11.056;2023-03-20T11:54:19;4.75;;;4.25;;
15466;SDS011;7834;49.452;11.056;2023-03-20T11:56:54;5.82;;;4.53;;
15466;SDS011;7834;49.452;11.056;2023-03-20T11:59:20;4.70;;;4.20;;
15466;SDS011;7834;49.452;11.056;2023-03-20T12:04:20;4.63;;;4.22;;
15466;SDS011;7834;49.452;11.056;2023-03-20T12:07:01;5.30;;;4.75;;
15466;SDS011;7834;49.452;11.056;2023-03-20T12:09:38;4.93;;;4.50;;
15466;SDS011;7834;49.452;11.056;2023-03-20T12:14:59;6.57;;;4.80;;
15466;SDS011;7834;49.452;11.056;2023-03-20T12:17:30;4.70;;;4.30;;
15466;SDS011;7834;49.452;11.056;2023-03-20T12:20:00;5.37;;;4.87;;
15466;SDS011;7834;49.452;11.056;2023-03-20T12:22:29;4.80;;;4.40;;
15466;SDS011;7834;49.452;11.056;2023-03-20T12:25:16;5.25;;;4.57;;
15466;SDS011;7834;49.452;11.056;2023-03-20T12:27:45;4.67;;;4.20;;
15466;SDS011;7834;49.452;11.056;2023-03-20T12:30:21;4.65;;;4.25;;
15466;SDS011;7834;49.452;11.056;2023-03-20T12:32:53;5.38;;;4.43;;
15466;SDS011;7834;49.452;11.056;2023-03-20T12:37:47;4.28;;;3.88;;
15466;SDS011;7834;49.452;11.056;2023-03-20T12:40:14;5.18;;;4.22;;
15466;SDS011;7834;49.452;11.056;2023-03-20T12:45:10;4.45;;;3.83;;
15466;SDS011;7834;49.452;11.056;2023-03-20T12:55:28;3.75;;;3.45;;
15466;SDS011;7834;49.452;11.056;2023-03-20T12:57:59;4.10;;;3.57;;
15466;SDS011;7834;49.452;11.056;2023-03-20T13:00:31;3.87;;;3.37;;
15466;SDS011;7834;49.452;11.056;2023-03-20T13:11:04;5.18;;;4.65;;
15466;SDS011;7834;49.452;11.056;2023-03-20T13:13:46;5.10;;;4.60;;
15466;SDS011;7834;49.452;11.056;2023-03-20T13:19:01;5.38;;;4.63;;
15466;SDS011;7834;49.452;11.056;2023-03-20T13:21:33;4.72;;;4.22;;
15466;SDS011;7834;49.452;11.056;2023-03-20T13:26:50;4.55;;;4.15;;
15466;SDS011;7834;49.452;11.056;2023-03-20T13:29:21;4.55;;;4.10;;
15466;SDS011;7834;49.452;11.056;2023-03-20T13:34:23;5.68;;;4.22;;
15466;SDS011;7834;49.452;11.056;2023-03-20T13:36:59;5.10;;;3.90;;
15466;SDS011;7834;49.452;11.056;2023-03-20T13:39:34;3.70;;;3.40;;
15466;SDS011;7834;49.452;11.056;2023-03-20T13:42:02;3.92;;;3.50;;
15466;SDS011;7834;49.452;11.056;2023-03-20T13:44:31;5.10;;;3.50;;
15466;SDS011;7834;49.452;11.056;2023-03-20T13:46:59;4.20;;;3.80;;
15466;SDS011;7834;49.452;11.056;2023-03-20T13:52:03;4.40;;;4.00;;
15466;SDS011;7834;49.452;11.056;2023-03-20T14:00:36;4.60;;;4.03;;
15466;SDS011;7834;49.452;11.056;2023-03-20T14:03:26;5.60;;;5.00;;
15466;SDS011;7834;49.452;11.056;2023-03-20T14:05:52;4.45;;;4.05;;
15466;SDS011;7834;49.452;11.056;2023-03-20T14:13:35;5.20;;;4.25;;
15466;SDS011;7834;49.452;11.056;2023-03-20T14:16:02;5.07;;;4.43;;
15466;SDS011;7834;49.452;11.056;2023-03-20T14:18:29;5.47;;;4.87;;
15466;SDS011;7834;49.452;11.056;2023-03-20T14:20:59;5.72;;;4.82;;
15466;SDS011;7834;49.452;11.056;2023-03-20T14:26:08;6.07;;;5.22;;
15466;SDS011;7834;49.452;11.056;2023-03-20T14:28:47;5.95;;;5.22;;
15466;SDS011;7834;49.452;11.056;2023-03-20T14:31:24;5.63;;;5.10;;
15466;SDS011;7834;49.452;11.056;2023-03-20T14:33:58;6.28;;;5.68;;
15466;SDS011;7834;49.452;11.056;2023-03-20T14:36:26;7.22;;;5.50;;
15466;SDS011;7834;49.452;11.056;2023-03-20T14:41:21;6.10;;;5.50;;
15466;SDS011;7834;49.452;11.056;2023-03-20T14:49:13;5.90;;;5.30;;
15466;SDS011;7834;49.452;11.056;2023-03-20T14:54:50;7.53;;;5.53;;
15466;SDS011;7834;49.452;11.056;2023-03-20T14:57:18;6.30;;;5.70;;
15466;SDS011;7834;49.452;11.056;2023-03-20T14:59:50;6.90;;;6.20;;
15466;SDS011;7834;49.452;11.056;2023-03-20T15:02:23;6.60;;;6.00;;
15466;SDS011;7834;49.452;11.056;2023-03-20T15:04:50;6.35;;;5.75;;
15466;SDS011;7834;49.452;11.056;2023-03-20T15:07:17;7.43;;;6.50;;
15466;SDS011;7834;49.452;11.056;2023-03-20T15:09:49;7.00;;;6.30;;
15466;SDS011;7834;49.452;11.056;2023-03-20T15:12:17;7.47;;;6.20;;
15466;SDS011;7834;49.452;11.056;2023-03-20T15:14:52;6.78;;;6.07;;
15466;SDS011;7834;49.452;11.056;2023-03-20T15:17:24;6.93;;;6.22;;
15466;SDS011;7834;49.452;11.056;2023-03-20T15:22:32;7.25;;;6.55;;
15466;SDS011;7834;49.452;11.056;2023-03-20T15:24:58;7.57;;;6.70;;
15466;SDS011;7834;49.452;11.056;2023-03-20T15:27:24;8.02;;;6.95;;
15466;SDS011;7834;49.452;11.056;2023-03-20T15:29:53;8.23;;;7.20;;
15466;SDS011;7834;49.452;11.056;2023-03-20T15:32:20;8.52;;;6.90;;
15466;SDS011;7834;49.452;11.056;2023-03-20T15:34:46;7.88;;;7.07;;
15466;SDS011;7834;49.452;11.056;2023-03-20T15:37:15;8.20;;;7.20;;
15466;SDS011;7834;49.452;11.056;2023-03-20T15:39:43;13.93;;;11.77;;
15466;SDS011;7834;49.452;11.056;2023-03-20T15:42:14;7.97;;;7.18;;
15466;SDS011;7834;49.452;11.056;2023-03-20T15:44:41;8.80;;;7.47;;
15466;SDS011;7834;49.452;11.056;2023-03-20T15:49:35;8.90;;;7.70;;
15466;SDS011;7834;49.452;11.056;2023-03-20T15:52:03;9.13;;;8.23;;
15466;SDS011;7834;49.452;11.056;2023-03-20T15:54:30;9.85;;;8.40;;
15466;SDS011;7834;49.452;11.056;2023-03-20T15:56:56;9.70;;;8.30;;
15466;SDS011;7834;49.452;11.056;2023-03-20T15:59:26;9.25;;;7.95;;
15466;SDS011;7834;49.452;11.056;2023-03-20T16:01:55;8.60;;;7.70;;
15466;SDS011;7834;49.452;11.056;2023-03-20T16:04:21;9.50;;;8.00;;
15466;SDS011;7834;49.452;11.056;2023-03-20T16:06:52;8.50;;;7.57;;
15466;SDS011;7834;49.452;11.056;2023-03-20T16:09:19;8.52;;;7.63;;
15466;SDS011;7834;49.452;11.056;2023-03-20T16:11:46;9.23;;;7.63;;
15466;SDS011;7834;49.452;11.056;2023-03-20T16:14:19;8.00;;;7.17;;
15466;SDS011;7834;49.452;11.056;2023-03-20T16:16:47;8.57;;;7.72;;
15466;SDS011;7834;49.452;11.056;2023-03-20T16:19:13;8.85;;;7.63;;
15466;SDS011;7834;49.452;11.056;2023-03-20T16:21:42;9.23;;;7.45;;
15466;SDS011;7834;49.452;11.056;2023-03-20T16:24:09;8.02;;;7.10;;
15466;SDS011;7834;49.452;11.056;2023-03-20T16:26:42;9.70;;;8.10;;
15466;SDS011;7834;49.452;11.056;2023-03-20T16:29:09;8.75;;;7.85;;
15466;SDS011;7834;49.452;11.056;2023-03-20T16:31:39;10.27;;;7.90;;
15466;SDS011;7834;49.452;11.056;2023-03-20T16:34:07;10.35;;;8.70;;
15466;SDS011;7834;49.452;11.056;2023-03-20T16:36:35;11.52;;;8.43;;
15466;SDS011;7834;49.452;11.056;2023-03-20T16:41:31;9.88;;;8.60;;
15466;SDS011;7834;49.452;11.056;2023-03-20T16:43:58;10.00;;;8.63;;
15466;SDS011;7834;49.452;11.056;2023-03-20T16:46:26;8.95;;;8.00;;
15466;SDS011;7834;49.452;11.056;2023-03-20T16:51:38;8.48;;;7.57;;
15466;SDS011;7834;49.452;11.056;2023-03-20T16:54:12;8.93;;;7.47;;
15466;SDS011;7834;49.452;11.056;2023-03-20T16:56:43;9.27;;;7.53;;
15466;SDS011;7834;49.452;11.056;2023-03-20T16:59:16;7.75;;;6.95;;
15466;SDS011;7834;49.452;11.056;2023-03-20T17:01:43;9.03;;;8.00;;
15466;SDS011;7834;49.452;11.056;2023-03-20T17:04:22;10.37;;;8.20;;
15466;SDS011;7834;49.452;11.056;2023-03-20T17:06:49;9.13;;;8.10;;
15466;SDS011;7834;49.452;11.056;2023-03-20T17:11:44;8.75;;;7.78;;
15466;SDS011;7834;49.452;11.056;2023-03-20T17:14:10;9.40;;;8.35;;
15466;SDS011;7834;49.452;11.056;2023-03-20T17:16:36;9.70;;;8.52;;
15466;SDS011;7834;49.452;11.056;2023-03-20T17:19:14;9.90;;;8.70;;
15466;SDS011;7834;49.452;11.056;2023-03-20T17:21:41;10.40;;;8.60;;
15466;SDS011;7834;49.452;11.056;2023-03-20T17:24:08;11.10;;;9.20;;
15466;SDS011;7834;49.452;11.056;2023-03-20T17:26:34;9.70;;;8.07;;
15466;SDS011;7834;49.452;11.056;2023-03-20T17:29:00;10.83;;;9.47;;